createdAt,value
2022-08-09T00:01:55.483Z,100783.09
2022-08-09T00:04:15.237Z,100797.19
2022-08-09T00:06:33.592Z,100798.41
2022-08-09T00:08:47.845Z,100798.78
2022-08-09T00:11:24.648Z,100797.06
2022-08-09T00:13:34.064Z,100789.34
2022-08-09T00:16:00.084Z,100796.72
2022-08-09T00:18:15.901Z,100795.97
2022-08-09T00:20:31.795Z,100794.75
2022-08-09T00:22:48.429Z,100783.47
2022-08-09T00:24:55.440Z,100804.53
2022-08-09T00:27:03.857Z,100799.25
2022-08-09T00:29:12.203Z,100793.28
2022-08-09T00:31:59.630Z,100792.16
2022-08-09T00:34:09.143Z,100789.59
2022-08-09T00:36:20.577Z,100794.50
2022-08-09T00:38:28.542Z,100794.59
2022-08-09T00:40:37.200Z,100792.16
2022-08-09T00:44:13.140Z,100796.56
2022-08-09T00:45:17.852Z,100800.00
2022-08-09T00:47:26.239Z,100793.28
2022-08-09T00:49:42.378Z,100799.03
2022-08-09T00:51:58.431Z,100798.41
2022-08-09T00:54:10.032Z,100794.50
2022-08-09T00:56:18.993Z,100788.47
2022-08-09T00:58:27.656Z,100800.16
2022-08-09T01:00:35.175Z,100799.16
2022-08-09T01:03:12.542Z,100803.56
2022-08-09T01:05:54.823Z,100800.16
2022-08-09T01:08:10.690Z,100803.81
2022-08-09T01:10:35.845Z,100798.28
2022-08-09T01:13:11.822Z,100806.63
2022-08-09T01:15:22.611Z,100800.84
2022-08-09T01:17:36.949Z,100799.75
2022-08-09T01:20:02.840Z,100807.34
2022-08-09T01:22:42.592Z,100805.66
2022-08-09T01:25:07.212Z,100810.03
2022-08-09T01:27:13.326Z,100797.19
2022-08-09T01:29:20.191Z,100793.63
2022-08-09T01:32:29.810Z,100810.03
2022-08-09T01:34:04.156Z,100797.78
2022-08-09T01:36:16.403Z,100800.63
2022-08-09T01:38:28.767Z,100782.22
2022-08-09T01:40:37.076Z,100801.84
2022-08-09T01:42:43.275Z,100801.72
2022-08-09T01:44:49.339Z,100798.28
2022-08-09T01:46:53.990Z,100804.78
2022-08-09T01:49:12.683Z,100793.00
2022-08-09T01:51:22.980Z,100795.31
2022-08-09T01:53:41.170Z,100802.06
2022-08-09T01:55:48.781Z,100805.97
2022-08-09T01:57:56.176Z,100800.44
2022-08-09T02:00:19.202Z,100815.50
2022-08-09T02:02:30.806Z,100816.22
2022-08-09T02:04:40.590Z,100803.38
2022-08-09T02:06:58.859Z,100817.09
2022-08-09T02:09:02.217Z,100812.31
2022-08-09T02:11:16.700Z,100803.25
2022-08-09T02:13:26.253Z,100807.53
2022-08-09T02:15:50.542Z,100803.50
2022-08-09T02:18:09.556Z,100801.53
2022-08-09T02:20:15.879Z,100818.09
2022-08-09T02:22:38.059Z,100811.09
2022-08-09T02:24:51.765Z,100810.59
2022-08-09T02:26:59.669Z,100801.56
2022-08-09T02:29:14.391Z,100800.09
2022-08-09T02:31:32.705Z,100793.47
2022-08-09T02:34:07.467Z,100794.34
2022-08-09T02:36:14.742Z,100791.88
2022-08-09T02:38:29.715Z,100792.22
2022-08-09T02:40:36.763Z,100805.34
2022-08-09T02:42:46.381Z,100803.97
2022-08-09T02:45:08.684Z,100795.16
2022-08-09T02:47:14.689Z,100790.97
2022-08-09T02:49:19.813Z,100798.09
2022-08-09T02:51:40.484Z,100792.69
2022-08-09T02:53:52.907Z,100798.81
2022-08-09T02:56:07.190Z,100794.44
2022-08-09T02:58:37.911Z,100808.16
2022-08-09T03:00:57.951Z,100798.19
2022-08-09T03:03:02.834Z,100779.69
2022-08-09T03:05:11.301Z,100797.06
2022-08-09T03:07:21.076Z,100793.59
2022-08-09T03:09:24.822Z,100799.06
2022-08-09T03:12:04.553Z,100789.75
2022-08-09T03:13:59.682Z,100795.91
2022-08-09T03:16:06.555Z,100786.00
2022-08-09T03:18:12.154Z,100801.22
2022-08-09T03:20:15.736Z,100783.19
2022-08-09T03:22:30.433Z,100786.88
2022-08-09T03:24:42.802Z,100802.06
2022-08-09T03:26:56.333Z,100803.28
2022-08-09T03:28:59.849Z,100799.75
2022-08-09T03:31:21.114Z,100796.66
2022-08-09T03:33:54.166Z,100800.59
2022-08-09T03:36:15.628Z,100795.69
2022-08-09T03:38:28.660Z,100786.16
2022-08-09T03:40:33.805Z,100790.69
2022-08-09T03:42:36.722Z,100799.63
2022-08-09T03:44:41.599Z,100768.38
2022-08-09T03:46:46.652Z,100788.34
2022-08-09T03:48:56.974Z,100785.88
2022-08-09T03:51:03.763Z,100782.44
2022-08-09T03:53:10.740Z,100792.13
2022-08-09T03:55:14.653Z,100781.09
2022-08-09T03:57:24.354Z,100796.28
2022-08-09T03:59:52.769Z,100792.22
2022-08-09T04:01:50.911Z,100806.69
2022-08-09T04:04:01.427Z,100804.88
2022-08-09T04:06:07.145Z,100817.13
2022-08-09T04:08:09.521Z,100810.16
2022-08-09T04:10:11.896Z,100811.97
2022-08-09T04:12:30.148Z,100819.09
2022-08-09T04:14:53.916Z,100810.66
2022-08-09T04:17:00.680Z,100807.09
2022-08-09T04:19:02.739Z,100814.34
2022-08-09T04:21:13.111Z,100813.00
2022-08-09T04:23:17.719Z,100822.69
2022-08-09T04:25:25.305Z,100807.22
2022-08-09T04:27:29.112Z,100818.19
2022-08-09T04:29:31.477Z,100804.44
2022-08-09T04:31:37.521Z,100807.84
2022-08-09T04:33:56.795Z,100809.28
2022-08-09T04:36:01.975Z,100815.34
2022-08-09T04:38:05.133Z,100813.00
2022-08-09T04:40:09.350Z,100828.03
2022-08-09T04:42:12.349Z,100820.03
2022-08-09T04:44:18.145Z,100816.34
2022-08-09T04:46:38.317Z,100825.34
2022-08-09T04:48:50.362Z,100827.50
2022-08-09T04:51:00.319Z,100826.50
2022-08-09T04:53:03.958Z,100826.19
2022-08-09T04:55:12.340Z,100836.34
2022-08-09T04:57:15.525Z,100820.19
2022-08-09T04:59:23.527Z,100841.47
2022-08-09T05:01:26.202Z,100843.78
2022-08-09T05:03:40.946Z,100841.59
2022-08-09T05:05:52.588Z,100839.31
2022-08-09T05:08:07.093Z,100851.19
2022-08-09T05:10:10.068Z,100845.63
2022-08-09T05:12:12.575Z,100851.03
2022-08-09T05:14:14.942Z,100854.78
2022-08-09T05:16:18.901Z,100854.06
2022-08-09T05:18:55.366Z,100861.03
2022-08-09T05:20:52.998Z,100866.47
2022-08-09T05:23:55.452Z,100844.72
2022-08-09T05:25:17.644Z,100854.28
2022-08-09T05:27:20.956Z,100866.88
2022-08-09T05:29:31.166Z,100857.63
2022-08-09T05:31:47.413Z,100857.06
2022-08-09T05:33:52.942Z,100861.38
2022-08-09T05:35:57.242Z,100864.03
2022-08-09T05:37:59.431Z,100861.63
2022-08-09T05:40:01.838Z,100869.31
2022-08-09T05:42:06.054Z,100868.03
2022-08-09T05:44:08.241Z,100859.66
2022-08-09T05:46:11.410Z,100868.91
2022-08-09T05:48:14.113Z,100859.22
2022-08-09T05:50:25.456Z,100873.06
2022-08-09T05:52:52.306Z,100860.22
2022-08-09T05:55:06.708Z,100864.06
2022-08-09T05:57:12.829Z,100865.78
2022-08-09T05:59:20.942Z,100864.91
2022-08-09T06:01:34.162Z,100865.94
2022-08-09T06:03:58.193Z,100867.38
2022-08-09T06:06:05.739Z,100879.38
2022-08-09T06:08:12.949Z,100876.94
2022-08-09T06:10:19.740Z,100864.81
2022-08-09T06:12:26.359Z,100879.09
2022-08-09T06:14:28.899Z,100870.66
2022-08-09T06:16:31.092Z,100870.97
2022-08-09T06:18:34.973Z,100861.53
2022-08-09T06:20:38.781Z,100874.38
2022-08-09T06:22:42.462Z,100872.13
2022-08-09T06:24:48.100Z,100879.22
2022-08-09T06:26:52.331Z,100888.50
2022-08-09T06:29:00.260Z,100885.22
2022-08-09T06:31:06.471Z,100884.38
2022-08-09T06:33:40.752Z,100882.91
2022-08-09T06:35:55.848Z,100862.69
2022-08-09T06:38:06.797Z,100884.19
2022-08-09T06:40:20.285Z,100881.19
2022-08-09T06:42:28.534Z,100883.47
2022-08-09T06:44:34.685Z,100879.34
2022-08-09T06:46:39.501Z,100881.47
2022-08-09T06:48:45.560Z,100890.31
2022-08-09T06:50:49.130Z,100888.31
2022-08-09T06:52:55.540Z,100883.34
2022-08-09T06:55:00.830Z,100893.34
2022-08-09T06:57:16.094Z,100893.09
2022-08-09T07:00:51.427Z,100882.78
2022-08-09T07:01:54.414Z,100902.34
2022-08-09T07:04:06.300Z,100897.47
2022-08-09T07:06:13.080Z,100903.91
2022-08-09T07:08:18.674Z,100898.34
2022-08-09T07:10:32.030Z,100916.00
2022-08-09T07:12:38.564Z,100914.28
2022-08-09T07:14:44.914Z,100906.44
2022-08-09T07:16:55.332Z,100925.28
2022-08-09T07:19:00.331Z,100926.84
2022-08-09T07:21:03.231Z,100924.28
2022-08-09T07:23:18.633Z,100922.84
2022-08-09T07:25:22.073Z,100919.88
2022-08-09T07:27:34.380Z,100916.13
2022-08-09T07:29:46.247Z,100919.41
2022-08-09T07:31:49.162Z,100921.69
2022-08-09T07:33:53.296Z,100915.25
2022-08-09T07:35:59.433Z,100922.22
2022-08-09T07:38:03.241Z,100936.63
2022-08-09T07:40:06.151Z,100921.88
2022-08-09T07:42:10.311Z,100931.50
2022-08-09T07:44:12.560Z,100908.91
2022-08-09T07:46:19.145Z,100937.34
2022-08-09T07:48:28.393Z,100938.69
2022-08-09T07:50:36.330Z,100925.19
2022-08-09T07:52:39.071Z,100929.28
2022-08-09T07:54:41.912Z,100933.88
2022-08-09T07:56:49.413Z,100925.16
2022-08-09T07:58:52.315Z,100934.97
2022-08-09T08:00:58.771Z,100931.72
2022-08-09T08:03:09.809Z,100927.59
2022-08-09T08:05:18.102Z,100921.72
2022-08-09T08:08:43.499Z,100916.88
2022-08-09T08:09:53.571Z,100929.25
2022-08-09T08:12:24.707Z,100939.94
2022-08-09T08:14:35.749Z,100939.81
2022-08-09T08:16:40.221Z,100934.19
2022-08-09T08:19:04.816Z,100932.88
2022-08-09T08:21:08.648Z,100938.63
2022-08-09T08:23:16.821Z,100941.03
2022-08-09T08:25:22.496Z,100936.59
2022-08-09T08:27:45.120Z,100941.72
2022-08-09T08:29:54.719Z,100940.69
2022-08-09T08:32:03.273Z,100931.66
2022-08-09T08:34:08.843Z,100927.06
2022-08-09T08:36:28.267Z,100947.22
2022-08-09T08:38:33.105Z,100932.19
2022-08-09T08:40:42.527Z,100937.47
2022-08-09T08:42:53.490Z,100943.13
2022-08-09T08:45:13.588Z,100944.16
2022-08-09T08:47:18.350Z,100946.94
2022-08-09T08:49:28.147Z,100933.09
2022-08-09T08:52:01.941Z,100943.69
2022-08-09T08:54:11.351Z,100952.88
2022-08-09T08:56:25.244Z,100924.41
2022-08-09T08:58:36.157Z,100946.75
2022-08-09T09:00:46.844Z,100948.44
2022-08-09T09:03:08.588Z,100949.97
2022-08-09T09:05:33.333Z,100948.09
2022-08-09T09:07:48.405Z,100929.13
2022-08-09T09:10:02.027Z,100950.13
2022-08-09T09:12:16.411Z,100947.69
2022-08-09T09:14:26.750Z,100954.69
2022-08-09T09:16:35.789Z,100944.47
2022-08-09T09:18:48.795Z,100947.34
2022-08-09T09:21:03.765Z,100947.50
2022-08-09T09:23:49.950Z,100927.34
2022-08-09T09:26:26.163Z,100940.97
2022-08-09T09:28:58.921Z,100950.72
2022-08-09T09:31:00.640Z,100951.59
2022-08-09T09:33:17.396Z,100954.31
2022-08-09T09:35:21.012Z,100957.56
2022-08-09T09:37:33.931Z,100958.44
2022-08-09T09:39:55.507Z,100950.47
2022-08-09T09:42:08.927Z,100941.59
2022-08-09T09:44:25.325Z,100945.34
2022-08-09T09:46:45.713Z,100951.31
2022-08-09T09:49:06.357Z,100945.53
2022-08-09T09:51:11.686Z,100956.97
2022-08-09T09:53:44.199Z,100938.38
2022-08-09T09:56:05.259Z,100950.66
2022-08-09T09:58:15.823Z,100946.25
2022-08-09T10:00:26.479Z,100943.84
2022-08-09T10:02:29.374Z,100944.19
2022-08-09T10:04:32.436Z,100940.75
2022-08-09T10:06:47.100Z,100951.66
2022-08-09T10:09:02.747Z,100943.47
2022-08-09T10:11:59.525Z,100949.97
2022-08-09T10:13:46.392Z,100948.25
2022-08-09T10:16:54.881Z,100946.91
2022-08-09T10:18:15.402Z,100938.16
2022-08-09T10:20:27.512Z,100945.88
2022-08-09T10:22:38.271Z,100933.38
2022-08-09T10:24:43.918Z,100934.22
2022-08-09T10:26:53.081Z,100931.19
2022-08-09T10:29:21.353Z,100920.59
2022-08-09T10:34:09.776Z,100936.63
2022-08-09T10:36:20.561Z,100937.94
2022-08-09T10:38:34.456Z,100938.97
2022-08-09T10:40:50.985Z,100923.91
2022-08-09T10:42:57.891Z,100929.47
2022-08-09T10:45:10.734Z,100916.66
2022-08-09T10:48:20.184Z,100922.13
2022-08-09T10:50:33.601Z,100915.63
2022-08-09T10:52:45.894Z,100920.53
2022-08-09T10:54:48.201Z,100913.22
2022-08-09T10:57:11.830Z,100912.59
2022-08-09T10:59:30.947Z,100913.44
2022-08-09T11:03:14.212Z,100919.41
2022-08-09T11:04:29.800Z,100920.28
2022-08-09T11:06:32.385Z,100914.28
2022-08-09T11:08:47.742Z,100905.25
2022-08-09T11:10:56.590Z,100897.78
2022-08-09T11:13:51.426Z,100906.16
2022-08-09T11:16:04.380Z,100900.84
2022-08-09T11:18:11.290Z,100889.44
2022-08-09T11:20:54.664Z,100896.06
2022-08-09T11:25:46.135Z,100871.19
2022-08-09T11:28:56.457Z,100890.28
2022-08-09T11:32:13.125Z,100892.09
2022-08-09T11:34:55.800Z,100905.13
2022-08-09T11:40:35.931Z,100875.00
2022-08-09T11:46:00.920Z,100866.38
2022-08-09T11:48:58.701Z,100888.88
2022-08-09T11:53:02.062Z,100876.31
2022-08-09T12:12:05.220Z,100867.00
2022-08-09T12:15:08.279Z,100872.47
2022-08-09T12:18:30.137Z,100874.50
2022-08-09T12:21:50.251Z,100881.91
2022-08-09T12:24:53.649Z,100862.63
2022-08-09T12:29:52.710Z,100847.50
2022-08-09T12:30:42.606Z,100854.97
2022-08-09T12:33:15.858Z,100859.41
2022-08-09T12:36:27.365Z,100860.66
2022-08-09T12:40:05.704Z,100870.03
2022-08-09T12:47:12.377Z,100875.88
2022-08-09T12:52:18.199Z,100847.97
2022-08-09T13:34:08.777Z,100840.63
2022-08-09T13:36:39.606Z,100819.91
2022-08-09T13:41:55.512Z,100845.09
2022-08-09T13:42:18.206Z,100818.03
2022-08-09T13:44:48.712Z,100829.84
2022-08-09T13:47:26.917Z,100821.22
2022-08-09T13:53:41.212Z,100839.13
2022-08-09T13:56:37.777Z,100846.75
2022-08-09T13:59:42.116Z,100829.06
2022-08-09T14:02:26.036Z,100840.13
2022-08-09T14:04:49.377Z,100857.19
2022-08-09T14:08:15.913Z,100826.09
2022-08-09T14:14:26.873Z,100827.34
2022-08-09T14:16:42.360Z,100851.25
2022-08-09T14:18:59.906Z,100838.81
2022-08-09T14:21:02.769Z,100823.84
2022-08-09T14:23:22.772Z,100832.47
2022-08-09T14:25:42.650Z,100835.19
2022-08-09T14:27:56.769Z,100846.06
2022-08-09T14:30:35.528Z,100840.66
2022-08-09T14:37:41.268Z,100848.97
2022-08-09T14:39:57.991Z,100839.44
2022-08-09T14:42:38.529Z,100846.59
2022-08-09T14:46:46.657Z,100846.03
2022-08-09T14:48:36.667Z,100850.50
2022-08-09T14:50:39.727Z,100840.44
2022-08-09T14:52:42.166Z,100839.44
2022-08-09T14:54:57.741Z,100833.97
2022-08-09T14:59:55.977Z,100814.44
2022-08-09T15:02:01.857Z,100837.09
2022-08-09T15:04:38.478Z,100821.50
2022-08-09T15:10:14.075Z,100822.94
2022-08-09T15:12:25.696Z,100831.28
2022-08-09T15:14:43.774Z,100821.38
2022-08-09T15:16:49.230Z,100844.38
2022-08-09T15:18:59.819Z,100838.56
2022-08-09T15:21:55.733Z,100834.06
2022-08-09T15:24:06.020Z,100830.81
2022-08-09T15:25:58.257Z,100838.59
2022-08-09T15:28:02.659Z,100830.56
2022-08-09T15:31:00.390Z,100826.50
2022-08-09T15:32:30.464Z,100818.56
2022-08-09T15:34:35.330Z,100841.88
2022-08-09T15:36:58.229Z,100831.50
2022-08-09T15:39:05.344Z,100841.75
2022-08-09T15:41:22.013Z,100827.81
2022-08-09T15:43:24.983Z,100815.75
2022-08-09T15:46:07.662Z,100833.84
2022-08-09T15:48:28.151Z,100837.09
2022-08-09T15:50:30.569Z,100827.00
2022-08-09T15:52:37.044Z,100827.22
2022-08-09T15:54:48.358Z,100819.69
2022-08-09T15:56:54.610Z,100819.81
2022-08-09T15:59:00.309Z,100802.41
2022-08-09T16:01:07.548Z,100827.25
2022-08-09T16:03:11.470Z,100827.59
2022-08-09T16:05:53.298Z,100824.16
2022-08-09T16:07:52.230Z,100816.97
2022-08-09T16:10:02.292Z,100803.88
2022-08-09T16:12:11.347Z,100823.13
2022-08-09T16:14:14.290Z,100819.22
2022-08-09T16:16:28.272Z,100816.19
2022-08-09T16:18:32.969Z,100822.72
2022-08-09T16:20:41.704Z,100816.06
2022-08-09T16:22:48.770Z,100802.47
2022-08-09T16:24:56.945Z,100822.75
2022-08-09T16:27:05.172Z,100818.84
2022-08-09T16:29:12.793Z,100812.22
2022-08-09T16:32:11.081Z,100817.50
2022-08-09T16:34:02.741Z,100817.03
2022-08-09T16:36:13.146Z,100812.72
2022-08-09T16:38:18.790Z,100812.75
2022-08-09T16:40:29.954Z,100819.56
2022-08-09T16:42:45.418Z,100809.88
2022-08-09T16:44:48.002Z,100820.81
2022-08-09T16:46:55.088Z,100814.84
2022-08-09T16:49:18.709Z,100815.22
2022-08-09T16:51:23.208Z,100816.22
2022-08-09T16:53:32.212Z,100819.13
2022-08-09T16:56:01.388Z,100823.22
2022-08-09T16:58:09.395Z,100816.56
2022-08-09T17:00:17.430Z,100833.63
2022-08-09T17:02:23.322Z,100831.06
2022-08-09T17:04:28.599Z,100826.97
2022-08-09T17:06:33.333Z,100818.97
2022-08-09T17:08:47.003Z,100839.09
2022-08-09T17:11:03.549Z,100832.59
2022-08-09T17:13:10.665Z,100833.63
2022-08-09T17:15:30.748Z,100827.16
2022-08-09T17:17:50.761Z,100825.94
2022-08-09T17:20:32.891Z,100825.28
2022-08-09T17:22:25.144Z,100832.09
2022-08-09T17:24:35.269Z,100821.34
2022-08-09T17:26:47.712Z,100839.44
2022-08-09T17:28:56.149Z,100833.47
2022-08-09T17:30:59.759Z,100834.28
2022-08-09T17:33:05.044Z,100837.53
2022-08-09T17:35:12.724Z,100842.44
2022-08-09T17:37:19.696Z,100833.16
2022-08-09T17:39:25.455Z,100839.28
2022-08-09T17:41:49.942Z,100841.47
2022-08-09T17:44:41.716Z,100848.41
2022-08-09T17:46:16.399Z,100841.25
2022-08-09T17:48:29.268Z,100835.78
2022-08-09T17:50:36.773Z,100841.38
2022-08-09T17:52:40.466Z,100835.56
2022-08-09T17:54:45.470Z,100847.31
2022-08-09T17:56:52.229Z,100847.78
2022-08-09T17:58:56.830Z,100846.59
2022-08-09T18:00:59.330Z,100855.56
2022-08-09T18:03:01.714Z,100830.06
2022-08-09T18:05:04.418Z,100851.38
2022-08-09T18:07:07.785Z,100849.47
2022-08-09T18:09:10.400Z,100839.84
2022-08-09T18:11:16.201Z,100858.91
2022-08-09T18:13:38.845Z,100853.56
2022-08-09T18:16:05.456Z,100854.50
2022-08-09T18:18:08.115Z,100855.97
2022-08-09T18:21:00.836Z,100853.19
2022-08-09T18:22:40.949Z,100855.22
2022-08-09T18:24:53.360Z,100843.56
2022-08-09T18:26:55.877Z,100859.88
2022-08-09T18:30:39.440Z,100852.22
2022-08-09T18:31:32.167Z,100848.84
2022-08-09T18:33:53.112Z,100848.75
2022-08-09T18:35:59.163Z,100849.22
2022-08-09T18:38:02.449Z,100856.13
2022-08-09T18:40:06.391Z,100857.13
2022-08-09T18:42:14.789Z,100857.94
2022-08-09T18:44:20.508Z,100860.66
2022-08-09T18:46:51.472Z,100853.41
2022-08-09T18:48:54.688Z,100873.41
2022-08-09T18:51:06.009Z,100876.22
2022-08-09T18:53:16.249Z,100879.13
2022-08-09T18:55:45.635Z,100881.03
2022-08-09T18:57:45.365Z,100889.63
2022-08-09T19:00:01.486Z,100885.06
2022-08-09T19:02:06.366Z,100893.09
2022-08-09T19:04:09.356Z,100890.41
2022-08-09T19:06:14.613Z,100900.97
2022-08-09T19:08:22.070Z,100908.00
2022-08-09T19:10:37.148Z,100898.75
2022-08-09T19:12:55.519Z,100890.44
2022-08-09T19:15:12.190Z,100898.59
2022-08-09T19:17:16.348Z,100898.19
2022-08-09T19:27:34.212Z,100914.75
2022-08-09T19:30:25.247Z,100914.47
2022-08-09T19:32:08.959Z,100913.78
2022-08-09T19:34:22.193Z,100891.69
2022-08-09T19:36:34.748Z,100903.94
2022-08-09T19:38:39.819Z,100908.50
2022-08-09T19:40:43.051Z,100904.53
2022-08-09T19:42:49.720Z,100908.09
2022-08-09T19:44:52.285Z,100881.78
2022-08-09T19:46:54.683Z,100894.06
2022-08-09T19:49:01.465Z,100896.06
2022-08-09T19:51:05.659Z,100906.19
2022-08-09T19:53:14.012Z,100907.91
2022-08-09T19:55:16.967Z,100915.78
2022-08-09T19:57:25.933Z,100906.78
2022-08-09T19:59:58.343Z,100915.75
2022-08-09T20:01:52.384Z,100913.63
2022-08-09T20:04:25.089Z,100916.88
2022-08-09T20:06:33.893Z,100920.31
2022-08-09T20:08:38.836Z,100916.59
2022-08-09T20:10:42.218Z,100910.25
2022-08-09T20:12:49.042Z,100926.25
2022-08-09T20:16:31.712Z,100916.22
2022-08-09T20:17:54.570Z,100913.66
2022-08-09T20:20:42.768Z,100930.75
2022-08-09T20:22:48.857Z,100924.31
2022-08-09T20:24:59.103Z,100926.41
2022-08-09T20:27:11.572Z,100928.25
2022-08-09T20:29:24.341Z,100915.84
2022-08-09T20:31:51.412Z,100914.41
2022-08-09T20:34:09.997Z,100922.81
2022-08-09T20:36:33.087Z,100910.06
2022-08-09T20:39:28.507Z,100926.31
2022-08-09T20:41:41.486Z,100926.00
2022-08-09T20:43:59.551Z,100925.41
2022-08-09T20:46:41.621Z,100928.66
2022-08-09T20:48:40.355Z,100929.91
2022-08-09T20:50:47.066Z,100922.59
2022-08-09T20:52:50.409Z,100913.03
2022-08-09T20:54:56.057Z,100916.88
2022-08-09T20:57:00.615Z,100922.56
2022-08-09T20:59:03.028Z,100917.22
2022-08-09T21:01:32.422Z,100932.91
2022-08-09T21:03:31.711Z,100932.78
2022-08-09T21:05:59.604Z,100929.72
2022-08-09T21:08:04.496Z,100921.41
2022-08-09T21:10:07.460Z,100923.41
2022-08-09T21:14:18.082Z,100917.25
2022-08-09T21:16:30.253Z,100928.03
2022-08-09T21:20:02.415Z,100920.16
2022-08-09T21:21:17.172Z,100936.19
2022-08-09T21:23:21.808Z,100921.69
2022-08-09T21:25:38.607Z,100928.13
2022-08-09T21:27:52.639Z,100922.28
2022-08-09T21:30:08.286Z,100934.66
2022-08-09T21:32:15.384Z,100941.72
2022-08-09T21:34:29.331Z,100943.16
2022-08-09T21:36:32.167Z,100950.38
2022-08-09T21:38:34.417Z,100941.97
2022-08-09T21:40:41.961Z,100955.06
2022-08-09T21:42:54.422Z,100957.09
2022-08-09T21:45:01.342Z,100955.47
2022-08-09T21:47:26.850Z,100965.16
2022-08-09T21:49:42.690Z,100945.59
2022-08-09T21:51:45.401Z,100957.19
2022-08-09T21:53:47.876Z,100964.84
2022-08-09T21:55:53.808Z,100953.84
2022-08-09T21:58:00.332Z,100955.13
2022-08-09T22:00:13.491Z,100952.91
2022-08-09T22:02:17.726Z,100942.34
2022-08-09T22:04:57.312Z,100952.16
2022-08-09T22:07:07.401Z,100948.63
2022-08-09T22:09:19.782Z,100957.84
2022-08-09T22:12:09.135Z,100940.66
2022-08-09T22:13:45.552Z,100943.38
2022-08-09T22:15:47.943Z,100951.69
2022-08-09T22:17:54.780Z,100921.31
2022-08-09T22:20:00.294Z,100951.47
2022-08-09T22:22:04.102Z,100939.94
2022-08-09T22:24:07.186Z,100951.94
2022-08-09T22:26:12.846Z,100948.03
2022-08-09T22:28:32.799Z,100959.81
2022-08-09T22:30:36.710Z,100946.06
2022-08-09T22:32:39.138Z,100951.69
2022-08-09T22:34:41.652Z,100945.06
2022-08-09T22:36:46.384Z,100960.03
2022-08-09T22:38:49.092Z,100951.78
2022-08-09T22:40:57.752Z,100959.25
2022-08-09T22:43:16.125Z,100960.25
2022-08-09T22:48:10.523Z,100947.34
2022-08-09T22:48:12.886Z,100954.06
2022-08-09T22:50:11.077Z,100968.41
2022-08-09T22:52:18.951Z,100961.16
2022-08-09T22:54:23.223Z,100968.16
2022-08-09T22:56:34.021Z,100961.16
2022-08-09T22:58:37.931Z,100932.59
2022-08-09T23:00:44.842Z,100959.94
2022-08-09T23:02:51.930Z,100961.75
2022-08-09T23:04:58.832Z,100962.28
2022-08-09T23:07:10.928Z,100959.69
2022-08-09T23:09:14.263Z,100959.00
2022-08-09T23:11:22.470Z,100962.22
2022-08-09T23:13:25.337Z,100963.94
2022-08-09T23:15:29.883Z,100949.47
2022-08-09T23:17:32.665Z,100942.94
2022-08-09T23:20:01.047Z,100967.84
2022-08-09T23:21:57.665Z,100957.91
2022-08-09T23:24:05.995Z,100967.13
2022-08-09T23:26:09.471Z,100969.72
2022-08-09T23:28:15.780Z,100961.25
2022-08-09T23:30:18.988Z,100978.31
2022-08-09T23:32:22.389Z,100974.25
2022-08-09T23:34:24.897Z,100955.75
2022-08-09T23:36:27.593Z,100956.72
2022-08-09T23:38:29.819Z,100960.91
2022-08-09T23:40:32.617Z,100963.84
2022-08-09T23:42:35.593Z,100960.31
2022-08-09T23:44:38.193Z,100969.50
2022-08-09T23:46:41.948Z,100962.50
2022-08-09T23:48:46.277Z,100968.41
2022-08-09T23:50:50.375Z,100956.97
2022-08-09T23:52:57.352Z,100959.41
2022-08-09T23:55:01.524Z,100971.22
2022-08-09T23:57:06.463Z,100971.97
2022-08-09T23:59:11.603Z,100961.28
